LiveATC.Net - Listen to live air traffic control over the Internet!

Find LiveATC Audio Streams


Airport/ARTCC Code

Frequency Search
(e.g., 124.400, 128.75)
Site-wide search
 


Browse LiveATC Feeds
Top 50 LiveATC Feeds
LiveATC Feed Map
Bad Weather Areas

LiveATC FAQ
Offer LiveATC feed
Contact LiveATC.net
Press Inquiries

LiveATC on iPhone
LiveATC on Android

Windows Phone
Windows 8/10

LiveATC Mobile
(Mobile browser)

ATC Audio Archives
Interesting Recordings

LiveATC Forums

Home Page
About LiveATC.net
Make a Donation
Terms of Use
Privacy Policy

Canadian Air Freqs

AIRMETs/SIGMETs

FAA Airport Status
Nat'l Airspace Status
Arrival Demand Charts


Server Software By:
Icecast.org
Liquidsoap

Select an area of interest:
U.S. Feeds: Class B Airports | Class C Airports | Class D/Other Airports | ARTCC (Centers)
International Feeds: Canada | Europe | Oceania | Asia | South America | North/Central America | Africa
Misc Feeds: HF Feeds
Search by ICAO/IATA airport code:   (e.g., kbos, kjfk, lax, eham, etc.)


Currently Available Live Feeds: 2443
Status Updated: Mon Jul 15 2019 19:02:04 UTC


NOTICE

Unauthorized use prohibited. See LiveATC.net Terms of Service

North and Central America Airport Feeds

 

MMAN Tower (Archives)
Monterrey, Mexico

Feed Status: UP
Listen in your browser - HTML5 player(in browser, HTML5)
Click here to listen with your own player(launches your MP3 player)

MMAN 151840Z 09008KT 10SM FEW010CB 34/20 A2996 RMK 8/300

MMAN Flight Activity (Flightaware)

Listeners: 0 out of 1101 total

Monterrey Tower: 118.600

MMCU Twr/App (Archives)
Chihuahua, Mexico

Feed Status: UP
Listen in your browser - HTML5 player(in browser, HTML5)
Click here to listen with your own player(launches your MP3 player)

MMCU 151844Z 09007KT 10SM SKC 33/07 A3011 RMK ISOL CU

MMCU Flight Activity (Flightaware)

Listeners: 0 out of 1101 total

Chihuahua Approach: 121.000
Chihuahua Tower: 118.400

MMGL Twr/App (Archives)
Guadalajara, Mexico

Feed Status: UP
Listen in your browser - HTML5 player(in browser, HTML5)
Click here to listen with your own player(launches your MP3 player)

MMGL 151849Z 00000KT 7SM SCT030 BKN100 24/14 A3018 RMK 8/130 HZY

MMGL Flight Activity (Flightaware)

Listeners: 4 out of 1101 total

Guadalajara Approach: 120.800
Guadalajara Tower: 118.100

MMHO App/Dep (Archives)
Hermosillo, Mexico

Feed Status: UP
Listen in your browser - HTML5 player(in browser, HTML5)
Click here to listen with your own player(launches your MP3 player)

MMHO 151842Z 19006KT 10SM FEW080 41/16 A2984 RMK 8/030 HZY

MMHO Flight Activity (Flightaware)

Listeners: out of 1101 total

Hermosillo Approach/Departure: 121.400

MMHO Tower (Archives)
Hermosillo, Mexico

Feed Status: UP
Listen in your browser - HTML5 player(in browser, HTML5)
Click here to listen with your own player(launches your MP3 player)

MMHO 151842Z 19006KT 10SM FEW080 41/16 A2984 RMK 8/030 HZY

MMHO Flight Activity (Flightaware)

Listeners: out of 1101 total

Hermosillo Tower: 118.700

MMLP Twr/App/Center (Archives)
La Paz, Mexico

Feed Status: UP
Listen in your browser - HTML5 player(in browser, HTML5)
Click here to listen with your own player(launches your MP3 player)

MMLP 151841Z 18004KT 10SM SKC 35/13 A2984 RMK ISOL AC/CI

MMLP Flight Activity (Flightaware)

Listeners: 0 out of 1101 total

La Paz Approach: 120.600
La Paz Tower: 118.100
Mazatlan Center: 128.000
Mazatlan Center: 124.400
Mazatlan Center: 128.300
Mazatlan Center: 124.200
Mazatlan Center: 126.300
Mazatlan Center: 126.500
San Jose Approach: 120.900

Merida Center (West 123.75) (Archives)
Merida, Mexico

Feed Status: UP
Listen in your browser - HTML5 player(in browser, HTML5)
Click here to listen with your own player(launches your MP3 player)

MMID Flight Activity (Flightaware)

Listeners: 0 out of 1101 total

Merida Center (West): 123.750

Merida Center (West 125.8) (Archives)
Merida, Mexico

Feed Status: UP
Listen in your browser - HTML5 player(in browser, HTML5)
Click here to listen with your own player(launches your MP3 player)

MMID Flight Activity (Flightaware)

Listeners: 0 out of 1101 total

Merida Center (West): 125.800

MMMD Tower/Approach (Archives)
Merida, Mexico

Feed Status: UP
Listen in your browser - HTML5 player(in browser, HTML5)
Click here to listen with your own player(launches your MP3 player)

MMMD 151846Z 10006KT 7SM BKN025 35/22 A2995 RMK 8/100 MDTCU

MMMD Flight Activity (Flightaware)

Listeners: 3 out of 1101 total

Merida Approach: 121.200
Merida Tower: 118.300

MMMM Tower
Morelia, Mexico

Feed Status: DOWN
Offline since: 2019-07-15 16:56:05 UTC

MMMM 151845Z 29004KT 7SM SCT030 BKN230 24/15 A3022 RMK 8/108 HZY CB E TCU SE ISOL AC

Morelia Tower: 118.500

MMMX Approach (Archives)
Mexico City, Mexico

Feed Status: UP
Listen in your browser - HTML5 player(in browser, HTML5)
Click here to listen with your own player(launches your MP3 player)

MMMX 151845Z 31005KT 6SM SCT020 23/11 A3031 NOSIG RMK 8/100 HZY MDT CU SW CI

MMMX Flight Activity (Flightaware)

Listeners: 1 out of 1101 total

Mexico City Approach: 121.200

MMMX Twr/App (Archives)
Mexico City, Mexico

Feed Status: UP
Listen in your browser - HTML5 player(in browser, HTML5)
Click here to listen with your own player(launches your MP3 player)

MMMX 151845Z 31005KT 6SM SCT020 23/11 A3031 NOSIG RMK 8/100 HZY MDT CU SW CI

MMMX Flight Activity (Flightaware)

Listeners: 4 out of 1101 total

Mexico City Approach: 121.200
Mexico City Final Approach: 119.750
Mexico City Helicopters: 118.150
Mexico City Terminal: 129.600
Mexico City Tower: 118.550

MMMY Tower/Approach (Archives)
Monterrey, Mexico

Feed Status: UP
Listen in your browser - HTML5 player(in browser, HTML5)
Click here to listen with your own player(launches your MP3 player)

MMMY 151845Z 12010KT 12SM BKN040TCU 36/20 A2990 RMK 8/200 CB/N

MMMY Flight Activity (Flightaware)

Listeners: 0 out of 1101 total

Monterrey Approach/Departure: 119.750
Monterrey Tower: 118.100

MMPC CTAF
Pachuca, Mexico

Feed Status: DOWN
Offline since: 2019-03-02 20:24:04 UTC

Pachuca CTAF/AFIS: 122.900

MMQT Tower/App (Archives)
Queretaro, Mexico

Feed Status: UP
Listen in your browser - HTML5 player(in browser, HTML5)
Click here to listen with your own player(launches your MP3 player)

MMQT 151844Z 00000KT 6SM SCT030 BKN250 25/13 A3028 RMK 8/102 HZY

MMQT Flight Activity (Flightaware)

Listeners: 0 out of 1101 total

Queretaro Approach: 127.200
Queretaro Tower: 118.950

MMSP Gnd/Twr/App/Center (Archives)
San Luis Potosi, Mexico

Feed Status: UP
Listen in your browser - HTML5 player(in browser, HTML5)
Click here to listen with your own player(launches your MP3 player)

MMSP 151841Z 05009KT 15SM SCT030 BKN230 27/07 A3023 RMK 8/108

MMSP Flight Activity (Flightaware)

Listeners: 0 out of 1101 total

AMX Ground Ops: 131.000
Mexico Center (North, Sector 6): 126.000
Mexico Center (Northwest, Sector 7): 123.900
Mexico Center (West, Sector 5): 125.100
Potosi Approach: 127.500
Potosi Tower: 118.900
TAO Ground Ops: 133.600

MMTC Twr/App/Center (Archives)
Torreon, Mexico

Feed Status: UP
Listen in your browser - HTML5 player(in browser, HTML5)
Click here to listen with your own player(launches your MP3 player)

MMTC 151840Z 06004KT 10SM BKN020TCU 33/12 A3005 RMK 8/200

MMTC Flight Activity (Flightaware)

Listeners: 0 out of 1101 total

Mazatlan Center: 124.200
Mazatlan Center: 124.400
Mazatlan Center: 128.000
Mexico Center: 123.900
Monterrey Center: 125.600
Monterrey Center: 125.425
Monterrey Center: 127.400
Torreon Approach: 119.500
Torreon Tower: 118.500

MMTJ Approach (Archives)
Tijuana, Mexico

Feed Status: UP
Listen in your browser - HTML5 player(in browser, HTML5)
Click here to listen with your own player(launches your MP3 player)

MMTJ 151848Z 28010KT 8SM SKC 28/15 A2995 RMK HZY ST W

MMTJ Flight Activity (Flightaware)

Listeners: 0 out of 1101 total

Tijuana Approach: 120.300

MMTJ Twr/Ramp (Archives)
Tijuana, Mexico

Feed Status: UP
Listen in your browser - HTML5 player(in browser, HTML5)
Click here to listen with your own player(launches your MP3 player)

MMTJ 151848Z 28010KT 8SM SKC 28/15 A2995 RMK HZY ST W

MMTJ Flight Activity (Flightaware)

Listeners: 2 out of 1101 total

Tijuana Ramp: 126.100
Tijuana Tower: 118.100

MUFH Havana FIR (App/Center) (Archives)
Havana, Cuba

Feed Status: UP
Listen in your browser - HTML5 player(in browser, HTML5)
Click here to listen with your own player(launches your MP3 player)

MUFH Flight Activity (Flightaware)

Listeners: 0 out of 1101 total

Hava Approach: 120.300
Havana Center: 120.250
Havana Center: 123.700
Havana Center: 124.550
Havana Center: 133.700
Havana Center: 135.100

TBPB Gnd/Twr/Radar/Center (Archives)
Bridgetown, Barbados

Feed Status: UP
Listen in your browser - HTML5 player(in browser, HTML5)
Click here to listen with your own player(launches your MP3 player)

TBPB 151800Z 09019KT 9999 SCT016TCU 31/25 Q1013 NOSIG

TBPB Flight Activity (Flightaware)

Listeners: 3 out of 1101 total

Adams Approach/Departure: 129.350
Adams Approach/Departure: 128.850
Adams Ground: 121.900
Adams Tower: 118.700
Piarco Center: 123.700

TXKF Tower/Ground (Archives)
Hamilton, Bermuda

Feed Status: UP
Listen in your browser - HTML5 player(in browser, HTML5)
Click here to listen with your own player(launches your MP3 player)

TXKF 151855Z 24012KT 9999 FEW019 SCT180 BKN300 29/24 Q1020

TXKF Flight Activity (Flightaware)

Listeners: 1 out of 1101 total

Bermuda CTAF: 122.800
Bermuda Ground/Clearance: 124.500
Bermuda Tower: 118.100

ZNY Bermuda Sector (Archives)
Hamilton, Bermuda

Feed Status: UP
Listen in your browser - HTML5 player(in browser, HTML5)
Click here to listen with your own player(launches your MP3 player)

TXKF 151855Z 24012KT 9999 FEW019 SCT180 BKN300 29/24 Q1020

TXKF Flight Activity (Flightaware)

Listeners: 1 out of 1101 total

New York Approach (Bermuda Sector) : 119.100
New York Center (Bermuda Sector): 128.500

MGGT Gnd/Twr (Archives)
Guatemala City, Guatemala

Feed Status: UP
Listen in your browser - HTML5 player(in browser, HTML5)
Click here to listen with your own player(launches your MP3 player)

MGGT 151900Z 03006KT 9999 SCT020 FEW025CB SCT200 26/15 Q1025 A3027 CB SE/SSE/S/SW

MGGT Flight Activity (Flightaware)

Listeners: 2 out of 1101 total

Guatemala City Ground: 121.900
Guatemala City Tower: 118.100

MGGT Ground (Archives)
Guatemala City, Guatemala

Feed Status: UP
Listen in your browser - HTML5 player(in browser, HTML5)
Click here to listen with your own player(launches your MP3 player)

MGGT 151900Z 03006KT 9999 SCT020 FEW025CB SCT200 26/15 Q1025 A3027 CB SE/SSE/S/SW

MGGT Flight Activity (Flightaware)

Listeners: 0 out of 1101 total

Guatemala City Ground: 121.900

MGGT Tower (Archives)
Guatemala City, Guatemala

Feed Status: UP
Listen in your browser - HTML5 player(in browser, HTML5)
Click here to listen with your own player(launches your MP3 player)

MGGT 151900Z 03006KT 9999 SCT020 FEW025CB SCT200 26/15 Q1025 A3027 CB SE/SSE/S/SW

MGGT Flight Activity (Flightaware)

Listeners: 1 out of 1101 total

Guatemala City Tower: 118.100

MHLC Gnd/Twr/Center (Archives)
La Ceiba, Honduras

Feed Status: UP
Listen in your browser - HTML5 player(in browser, HTML5)
Click here to listen with your own player(launches your MP3 player)

MHLC 151900Z 11003KT 9999 TS SCT023CB BKN070 27/25 Q1012 A2989 RERA NOSIG

MHLC Flight Activity (Flightaware)

Listeners: 0 out of 1101 total

CENAMER: 123.900
CENAMER: 124.300
Goloson Ground: 121.900
Goloson Tower: 118.500
La Ceiba Radio: 128.900

MHRO Gnd/Twr/App/Center (Archives)
Roatan, Honduras

Feed Status: UP
Listen in your browser - HTML5 player(in browser, HTML5)
Click here to listen with your own player(launches your MP3 player)

MHRO 151900Z 10012KT 9999 SCT016CB SCT070 30/25 Q1013 A2992 NOSIG

MHRO Flight Activity (Flightaware)

Listeners: 0 out of 1101 total

CENAMER (Center): 124.300
La Ceiba Radio: 128.900
Roatan Ground: 121.600
Roatan Tower: 118.100

MHTG ATIS (Archives)
Tegucigalpa, Honduras

Feed Status: UP
Listen in your browser - HTML5 player(in browser, HTML5)
Click here to listen with your own player(launches your MP3 player)

MHTG 151900Z 09006KT 8000 VCSH BKN030 26/17 Q1020 A3012 NOSIG

MHTG Flight Activity (Flightaware)

Listeners: 0 out of 1101 total

Toncontin ATIS: 127.750

MHTG Gnd/Twr/App/Ctr/Ops (Archives)
Tegucigalpa, Honduras

Feed Status: UP
Listen in your browser - HTML5 player(in browser, HTML5)
Click here to listen with your own player(launches your MP3 player)

MHTG 151900Z 09006KT 8000 VCSH BKN030 26/17 Q1020 A3012 NOSIG

MHTG Flight Activity (Flightaware)

Listeners: 0 out of 1101 total

American Airlines Ops: 130.700
ARINC ACARS: 131.550
Cenamer Center: 123.900
Cenamer Center: 124.300
Cenamer Center: 124.100
CMP Ops: 129.925
Continental Airlines Ops: 129.925
FAH Ground: 122.900
Taca Ops: 131.300
Taca Ops Sal: 130.300
Tecnologias Unidas: 133.000
Tegucigalpa RDO: 126.700
Toncontin Approach: 119.100
Toncontin Ground: 121.900
Toncontin Tower: 118.700

MROC Del/Gnd/Twr (Archives)
San Jose, Costa Rica

Feed Status: UP
Listen in your browser - HTML5 player(in browser, HTML5)
Click here to listen with your own player(launches your MP3 player)

MROC 151900Z 24010KT 9999 FEW045 26/22 A2996 NOSIG

MROC Flight Activity (Flightaware)

Listeners: 0 out of 1101 total

Coco Clearance Delivery/Ground: 121.900
Coco Tower: 118.600

MROC Del/Gnd/Twr/App/Center/Misc (Archives)
San Jose, Costa Rica

Feed Status: UP
Listen in your browser - HTML5 player(in browser, HTML5)
Click here to listen with your own player(launches your MP3 player)

MROC 151900Z 24010KT 9999 FEW045 26/22 A2996 NOSIG

MROC Flight Activity (Flightaware)

Listeners: 9 out of 1101 total

Central American Center (CENAMER Control): 124.100
Coco Center (Control over CR Airspace): 119.600
Coco Clearance Delivery: 121.300
Coco Ground: 121.900
Coco Terminal Control: 120.500
Coco Tower: 118.600
Coco UNICOM: 126.800
SYQ Ground: 121.700
SYQ Tower: 118.300

MSLP Gnd/Twr/App
San Salvador, El Salvador

Feed Status: DOWN
Offline since: 2019-07-10 15:17:22 UTC

MSLP 151850Z 20008KT 160V240 9999 FEW030 32/25 Q1010 A2984

Comalapa Ground: 121.700
Comalapa Tower: 118.000
Compalapa Approach: 119.900

MSLP Gnd/Twr/App/Center (Archives)
San Salvador, El Salvador

Feed Status: UP
Listen in your browser - HTML5 player(in browser, HTML5)
Click here to listen with your own player(launches your MP3 player)

MSLP 151850Z 20008KT 160V240 9999 FEW030 32/25 Q1010 A2984

MSLP Flight Activity (Flightaware)

Listeners: 1 out of 1101 total

Avianca Ops: 123.500
CCA: 119.300
CENAMER: 124.100
Comalapa Authorizations: 121.250
Comalapa Departure: 123.900
Comalapa Ground: 121.700
Comalapa Tower: 118.000
Compalapa Approach: 119.900
Ilopango Tower: 118.300
TACA Ops: 130.500